createdAt,value
2019-02-18T00:01:54.912Z,3.10
2019-02-18T00:04:26.095Z,3.10
2019-02-18T00:06:57.408Z,3.20
2019-02-18T00:09:28.548Z,3.10
2019-02-18T00:11:59.917Z,3.10
2019-02-18T00:14:31.026Z,3.00
2019-02-18T00:17:02.179Z,2.90
2019-02-18T00:19:33.308Z,2.90
2019-02-18T00:22:04.584Z,2.90
2019-02-18T00:24:35.764Z,2.90
2019-02-18T00:27:07.088Z,2.90
2019-02-18T00:29:38.226Z,2.80
2019-02-18T00:32:09.568Z,2.70
2019-02-18T00:34:40.663Z,2.70
2019-02-18T00:37:12.160Z,2.80
2019-02-18T00:39:43.520Z,2.80
2019-02-18T00:42:26.388Z,2.80
2019-02-18T00:44:57.474Z,2.70
2019-02-18T00:47:28.676Z,2.70
2019-02-18T00:49:59.762Z,2.80
2019-02-18T00:52:31.132Z,2.80
2019-02-18T00:55:02.200Z,2.80
2019-02-18T00:57:33.538Z,2.80
2019-02-18T01:00:05.330Z,2.70
2019-02-18T01:02:37.242Z,2.60
2019-02-18T01:05:08.520Z,2.60
2019-02-18T01:07:39.834Z,2.70
2019-02-18T01:10:12.484Z,2.70
2019-02-18T01:12:43.964Z,2.70
2019-02-18T01:15:15.038Z,2.70
2019-02-18T01:17:46.464Z,2.70
2019-02-18T01:20:17.502Z,2.70
2019-02-18T01:22:48.861Z,2.70
2019-02-18T01:25:19.986Z,2.70
2019-02-18T01:27:51.453Z,2.50
2019-02-18T01:30:22.564Z,2.50
2019-02-18T01:32:53.950Z,2.50
2019-02-18T01:35:25.095Z,2.50
2019-02-18T01:37:56.372Z,2.50
2019-02-18T01:40:27.440Z,2.30
2019-02-18T01:42:58.728Z,2.40
2019-02-18T01:45:29.831Z,2.40
2019-02-18T01:48:01.129Z,2.30
2019-02-18T01:50:32.228Z,2.30
2019-02-18T01:53:03.366Z,2.30
2019-02-18T01:55:34.458Z,2.10
2019-02-18T01:58:05.803Z,1.90
2019-02-18T02:00:36.970Z,2.00
2019-02-18T02:03:08.231Z,2.00
2019-02-18T02:05:39.603Z,2.10
2019-02-18T02:08:10.992Z,2.10
2019-02-18T02:10:42.166Z,2.00
2019-02-18T02:13:32.549Z,2.00
2019-02-18T02:16:09.318Z,2.00
2019-02-18T02:18:40.585Z,2.00
2019-02-18T02:21:11.653Z,2.10
2019-02-18T02:23:43.056Z,2.10
2019-02-18T02:26:14.288Z,2.10
2019-02-18T02:28:45.740Z,2.00
2019-02-18T02:31:18.137Z,1.90
2019-02-18T02:33:49.468Z,1.80
2019-02-18T02:36:20.515Z,1.80
2019-02-18T02:38:51.656Z,1.80
2019-02-18T02:41:22.756Z,1.70
2019-02-18T02:43:54.184Z,1.80
2019-02-18T02:46:25.295Z,1.80
2019-02-18T02:49:15.594Z,1.70
2019-02-18T02:51:46.757Z,1.50
2019-02-18T02:54:18.087Z,1.50
2019-02-18T02:56:49.182Z,1.60
2019-02-18T02:59:20.882Z,1.50
2019-02-18T03:01:52.019Z,1.60
2019-02-18T03:04:23.359Z,1.50
2019-02-18T03:06:54.510Z,1.50
2019-02-18T03:09:25.674Z,1.30
2019-02-18T03:11:56.785Z,1.30
2019-02-18T03:14:28.064Z,1.30
2019-02-18T03:16:59.110Z,1.30
2019-02-18T03:19:30.396Z,1.40
2019-02-18T03:22:01.482Z,1.40
2019-02-18T03:24:32.847Z,1.40
2019-02-18T03:27:03.987Z,1.30
2019-02-18T03:30:22.256Z,1.30
2019-02-18T03:32:56.209Z,1.30
2019-02-18T03:35:27.602Z,1.40
2019-02-18T03:37:58.856Z,1.40
2019-02-18T03:40:30.948Z,1.40
2019-02-18T03:43:02.146Z,1.40
2019-02-18T03:45:33.377Z,1.40
2019-02-18T03:48:04.550Z,1.50
2019-02-18T03:50:35.966Z,1.40
2019-02-18T03:53:07.096Z,1.50
2019-02-18T03:55:38.243Z,1.50
2019-02-18T03:58:09.484Z,1.50
2019-02-18T04:00:40.798Z,1.50
2019-02-18T04:03:11.896Z,1.50
2019-02-18T04:05:43.285Z,1.60
2019-02-18T04:08:14.373Z,1.60
2019-02-18T04:10:45.794Z,1.70
2019-02-18T04:13:16.942Z,1.70
2019-02-18T04:15:48.472Z,1.70
2019-02-18T04:18:19.672Z,1.70
2019-02-18T04:20:50.984Z,1.60
2019-02-18T04:23:22.081Z,1.70
2019-02-18T04:25:53.373Z,1.70
2019-02-18T04:28:24.524Z,1.60
2019-02-18T04:30:55.864Z,1.60
2019-02-18T04:33:26.936Z,1.60
2019-02-18T04:35:58.104Z,1.60
2019-02-18T04:38:29.183Z,1.70
2019-02-18T04:41:00.866Z,1.70
2019-02-18T04:43:31.912Z,1.50
2019-02-18T04:46:03.245Z,1.50
2019-02-18T04:48:34.301Z,1.50
2019-02-18T04:51:05.649Z,1.50
2019-02-18T04:53:36.760Z,1.50
2019-02-18T04:56:08.133Z,1.40
2019-02-18T04:58:39.209Z,1.40
2019-02-18T05:01:10.530Z,1.30
2019-02-18T05:03:41.628Z,1.30
2019-02-18T05:06:12.977Z,1.40
2019-02-18T05:08:44.175Z,1.30
2019-02-18T05:11:15.621Z,1.30
2019-02-18T05:13:46.774Z,1.40
2019-02-18T05:16:17.974Z,1.40
2019-02-18T05:18:49.029Z,1.50
2019-02-18T05:21:20.348Z,1.60
2019-02-18T05:23:51.397Z,1.60
2019-02-18T05:26:22.784Z,1.60
2019-02-18T05:28:53.849Z,1.50
2019-02-18T05:31:25.181Z,1.50
2019-02-18T05:33:56.220Z,1.40
2019-02-18T05:36:27.478Z,1.40
2019-02-18T05:38:58.626Z,1.40
2019-02-18T05:41:31.198Z,1.40
2019-02-18T05:44:02.621Z,1.40
2019-02-18T05:46:33.994Z,1.50
2019-02-18T05:49:05.060Z,1.50
2019-02-18T05:51:36.380Z,1.50
2019-02-18T05:54:07.438Z,1.50
2019-02-18T05:56:38.791Z,1.50
2019-02-18T05:59:09.854Z,1.50
2019-02-18T06:01:41.152Z,1.40
2019-02-18T06:04:12.221Z,1.30
2019-02-18T06:06:43.456Z,1.30
2019-02-18T06:09:14.616Z,1.30
2019-02-18T06:11:45.955Z,1.20
2019-02-18T06:14:17.068Z,1.10
2019-02-18T06:16:48.383Z,1.10
2019-02-18T06:19:19.502Z,1.10
2019-02-18T06:21:50.888Z,1.10
2019-02-18T06:24:22.008Z,1.10
2019-02-18T06:26:53.431Z,1.10
2019-02-18T06:29:24.536Z,1.20
2019-02-18T06:31:55.929Z,1.10
2019-02-18T06:34:27.070Z,1.10
2019-02-18T06:36:58.369Z,1.10
2019-02-18T06:39:40.222Z,1.10
2019-02-18T06:42:02.448Z,1.20
2019-02-18T06:44:38.944Z,1.20
2019-02-18T06:47:13.757Z,1.20
2019-02-18T06:49:44.906Z,1.10
2019-02-18T06:52:16.281Z,1.20
2019-02-18T06:54:47.462Z,1.20
2019-02-18T06:57:47.004Z,1.20
2019-02-18T07:00:37.083Z,1.30
2019-02-18T07:03:21.172Z,1.40
2019-02-18T07:06:00.024Z,1.50
2019-02-18T07:08:56.442Z,1.50
2019-02-18T07:11:52.444Z,1.60
2019-02-18T07:14:23.784Z,1.50
2019-02-18T07:16:54.968Z,1.60
2019-02-18T07:19:26.278Z,1.80
2019-02-18T07:21:57.404Z,1.90
2019-02-18T07:24:28.772Z,1.90
2019-02-18T07:26:59.882Z,1.80
2019-02-18T07:29:31.286Z,1.80
2019-02-18T07:32:02.368Z,1.80
2019-02-18T07:34:33.773Z,1.70
2019-02-18T07:37:04.882Z,1.80
2019-02-18T07:39:36.260Z,1.90
2019-02-18T07:42:07.322Z,2.00
2019-02-18T07:44:38.754Z,2.10
2019-02-18T07:47:09.903Z,1.90
2019-02-18T07:49:41.272Z,2.10
2019-02-18T07:52:12.438Z,2.20
2019-02-18T07:54:43.749Z,2.10
2019-02-18T07:57:14.899Z,2.10
2019-02-18T07:59:46.362Z,2.20
2019-02-18T08:02:18.368Z,2.30
2019-02-18T08:04:50.896Z,2.40
2019-02-18T08:07:22.035Z,2.30
2019-02-18T08:09:53.489Z,2.50
2019-02-18T08:12:24.581Z,2.40
2019-02-18T08:14:55.864Z,2.60
2019-02-18T08:17:26.952Z,2.70
2019-02-18T08:19:58.254Z,2.70
2019-02-18T08:22:29.396Z,2.70
2019-02-18T08:25:00.758Z,2.80
2019-02-18T08:27:32.036Z,3.00
2019-02-18T08:30:03.460Z,2.90
2019-02-18T08:32:36.008Z,3.10
2019-02-18T08:35:07.694Z,3.20
2019-02-18T08:37:38.863Z,3.30
2019-02-18T08:40:10.894Z,3.40
2019-02-18T08:42:41.966Z,3.50
2019-02-18T08:45:13.389Z,3.70
2019-02-18T08:47:44.562Z,3.80
2019-02-18T08:50:15.792Z,3.90
2019-02-18T08:52:46.864Z,4.00
2019-02-18T08:55:18.276Z,4.00
2019-02-18T08:57:49.430Z,4.10
2019-02-18T09:00:20.690Z,4.20
2019-02-18T09:02:51.836Z,4.30
2019-02-18T09:05:23.360Z,4.30
2019-02-18T09:07:54.557Z,4.50
2019-02-18T09:10:33.751Z,4.70
2019-02-18T09:13:00.027Z,4.70
2019-02-18T09:15:31.426Z,4.90
2019-02-18T09:18:02.550Z,4.90
2019-02-18T09:20:33.992Z,5.00
2019-02-18T09:23:32.824Z,5.20
2019-02-18T09:26:05.092Z,5.40
2019-02-18T09:28:36.192Z,5.50
2019-02-18T09:31:07.388Z,5.60
2019-02-18T09:33:38.698Z,5.70
2019-02-18T09:36:09.973Z,5.90
2019-02-18T09:38:41.024Z,6.10
2019-02-18T09:41:12.395Z,6.20
2019-02-18T09:43:43.452Z,6.40
2019-02-18T09:46:14.648Z,6.50
2019-02-18T09:48:45.719Z,6.60
2019-02-18T09:51:17.054Z,6.80
2019-02-18T09:53:48.236Z,6.90
2019-02-18T09:56:19.659Z,7.10
2019-02-18T09:58:50.845Z,7.30
2019-02-18T10:01:22.000Z,7.50
2019-02-18T10:03:53.064Z,7.70
2019-02-18T10:06:24.308Z,7.70
2019-02-18T10:08:55.421Z,7.80
2019-02-18T10:11:26.832Z,7.90
2019-02-18T10:13:57.925Z,8.00
2019-02-18T10:16:29.340Z,8.30
2019-02-18T10:19:00.414Z,8.50
2019-02-18T10:21:31.808Z,8.60
2019-02-18T10:24:02.978Z,8.70
2019-02-18T10:26:34.367Z,9.00
2019-02-18T10:29:05.604Z,9.30
2019-02-18T10:31:36.899Z,9.50
2019-02-18T10:34:07.988Z,9.70
2019-02-18T10:36:39.292Z,10.00
2019-02-18T10:39:10.379Z,10.40
2019-02-18T10:41:41.997Z,10.50
2019-02-18T10:44:13.130Z,10.70
2019-02-18T10:46:44.515Z,10.80
2019-02-18T10:49:19.815Z,10.90
2019-02-18T10:51:48.731Z,11.00
2019-02-18T10:54:19.976Z,11.10
2019-02-18T10:56:51.442Z,11.20
2019-02-18T10:59:22.613Z,11.60
2019-02-18T11:01:53.857Z,11.60
2019-02-18T11:04:24.930Z,12.30
2019-02-18T11:06:56.318Z,12.50
2019-02-18T11:09:27.377Z,13.20
2019-02-18T11:11:58.804Z,13.50
2019-02-18T11:14:29.975Z,14.50
2019-02-18T11:17:01.422Z,16.20
2019-02-18T11:19:32.482Z,17.40
2019-02-18T11:22:03.896Z,17.90
2019-02-18T11:24:35.045Z,18.50
2019-02-18T11:27:06.392Z,20.10
2019-02-18T11:29:56.560Z,20.30
2019-02-18T11:32:27.798Z,19.50
2019-02-18T11:35:00.526Z,20.50
2019-02-18T11:37:32.958Z,20.70
2019-02-18T11:40:04.345Z,21.00
2019-02-18T11:42:37.419Z,21.20
2019-02-18T11:45:10.320Z,20.80
2019-02-18T11:47:41.734Z,21.20
2019-02-18T11:50:14.037Z,22.10
2019-02-18T11:52:45.536Z,22.40
2019-02-18T11:55:16.579Z,22.30
2019-02-18T11:57:48.280Z,23.20
2019-02-18T12:00:19.348Z,22.20
2019-02-18T12:02:50.689Z,22.10
2019-02-18T12:05:22.019Z,22.50
2019-02-18T12:07:53.369Z,21.90
2019-02-18T12:10:25.055Z,22.70
2019-02-18T12:12:56.477Z,23.10
2019-02-18T12:15:27.593Z,23.50
2019-02-18T12:17:59.057Z,23.20
2019-02-18T12:20:30.233Z,22.60
2019-02-18T12:23:01.438Z,21.60
2019-02-18T12:25:32.670Z,22.20
2019-02-18T12:28:04.270Z,21.90
2019-02-18T12:30:35.332Z,22.10
2019-02-18T12:33:06.656Z,23.30
2019-02-18T12:35:37.729Z,23.30
2019-02-18T12:38:09.161Z,24.20
2019-02-18T12:40:40.275Z,24.60
2019-02-18T12:43:11.652Z,24.00
2019-02-18T12:45:42.832Z,23.50
2019-02-18T12:48:14.249Z,24.00
2019-02-18T12:50:45.483Z,24.70
2019-02-18T12:53:16.945Z,24.40
2019-02-18T12:55:48.120Z,25.50
2019-02-18T12:58:19.654Z,24.60
2019-02-18T13:00:50.893Z,23.20
2019-02-18T13:03:22.503Z,24.00
2019-02-18T13:05:53.666Z,24.30
2019-02-18T13:08:25.277Z,24.00
2019-02-18T13:10:56.689Z,22.70
2019-02-18T13:13:31.348Z,23.10
2019-02-18T13:16:01.943Z,24.20
2019-02-18T13:18:33.934Z,24.40
2019-02-18T13:21:05.080Z,23.60
2019-02-18T13:23:36.539Z,23.90
2019-02-18T13:26:07.692Z,22.60
2019-02-18T13:28:39.120Z,23.30
2019-02-18T13:31:10.320Z,23.30
2019-02-18T13:33:41.717Z,23.40
2019-02-18T13:36:15.139Z,22.70
2019-02-18T13:38:46.561Z,21.10
2019-02-18T13:41:17.792Z,21.00
2019-02-18T13:43:49.116Z,21.30
2019-02-18T13:46:20.196Z,22.50
2019-02-18T13:48:51.554Z,22.70
2019-02-18T13:51:24.462Z,23.40
2019-02-18T13:53:55.838Z,23.60
2019-02-18T13:56:26.960Z,23.60
2019-02-18T13:58:58.283Z,23.30
2019-02-18T14:01:29.428Z,24.60
2019-02-18T14:04:00.776Z,26.20
2019-02-18T14:06:31.954Z,26.30
2019-02-18T14:09:04.517Z,25.70
2019-02-18T14:11:37.234Z,26.10
2019-02-18T14:14:08.632Z,25.80
2019-02-18T14:16:39.809Z,26.10
2019-02-18T14:19:11.252Z,25.40
2019-02-18T14:21:42.694Z,26.20
2019-02-18T14:24:14.299Z,26.10
2019-02-18T14:26:45.395Z,26.10
2019-02-18T14:29:16.830Z,26.60
2019-02-18T14:31:47.912Z,26.90
2019-02-18T14:34:19.432Z,26.00
2019-02-18T14:36:50.786Z,25.60
2019-02-18T14:39:26.585Z,26.30
2019-02-18T14:41:57.788Z,25.60
2019-02-18T14:44:29.171Z,26.20
2019-02-18T14:47:00.282Z,26.70
2019-02-18T14:49:31.807Z,26.70
2019-02-18T14:52:03.014Z,26.60
2019-02-18T14:54:34.521Z,27.40
2019-02-18T14:57:06.124Z,27.60
2019-02-18T14:59:37.424Z,28.20
2019-02-18T15:02:09.721Z,27.50
2019-02-18T15:04:41.066Z,26.90
2019-02-18T15:07:12.169Z,27.40
2019-02-18T15:09:43.440Z,27.70
2019-02-18T15:12:14.574Z,27.10
2019-02-18T15:14:45.846Z,25.70
2019-02-18T15:17:17.128Z,25.60
2019-02-18T15:19:48.528Z,26.40
2019-02-18T15:22:19.677Z,26.50
2019-02-18T15:24:51.182Z,26.40
2019-02-18T15:27:22.654Z,26.30
2019-02-18T15:29:54.031Z,26.50
2019-02-18T15:32:25.263Z,26.10
2019-02-18T15:34:56.636Z,25.70
2019-02-18T15:37:27.814Z,25.40
2019-02-18T15:39:59.225Z,25.90
2019-02-18T15:42:30.486Z,25.20
2019-02-18T15:45:01.928Z,25.00
2019-02-18T15:47:34.354Z,24.20
2019-02-18T15:50:06.582Z,24.10
2019-02-18T15:52:37.716Z,24.10
2019-02-18T15:55:09.789Z,23.80
2019-02-18T15:57:41.013Z,25.00
2019-02-18T16:00:15.807Z,24.50
2019-02-18T16:02:47.274Z,24.30
2019-02-18T16:05:18.760Z,23.70
2019-02-18T16:07:49.902Z,23.70
2019-02-18T16:10:21.252Z,23.70
2019-02-18T16:12:52.421Z,23.60
2019-02-18T16:15:23.858Z,23.40
2019-02-18T16:17:55.088Z,22.40
2019-02-18T16:20:26.368Z,21.30
2019-02-18T16:22:57.412Z,20.00
2019-02-18T16:25:28.815Z,19.20
2019-02-18T16:28:00.048Z,19.00
2019-02-18T16:30:31.333Z,18.60
2019-02-18T16:33:02.496Z,18.20
2019-02-18T16:35:34.549Z,17.60
2019-02-18T16:38:05.850Z,17.10
2019-02-18T16:40:37.553Z,16.80
2019-02-18T16:43:08.724Z,16.60
2019-02-18T16:45:40.095Z,16.40
2019-02-18T16:48:11.514Z,15.80
2019-02-18T16:50:43.273Z,15.20
2019-02-18T16:53:14.387Z,14.80
2019-02-18T16:55:45.856Z,14.40
2019-02-18T16:58:17.114Z,14.20
2019-02-18T17:00:48.456Z,14.00
2019-02-18T17:03:19.697Z,13.80
2019-02-18T17:05:51.064Z,13.50
2019-02-18T17:08:22.140Z,13.20
2019-02-18T17:10:53.445Z,12.90
2019-02-18T17:13:24.600Z,12.60
2019-02-18T17:15:56.102Z,12.40
2019-02-18T17:18:27.360Z,12.40
2019-02-18T17:20:58.748Z,12.30
2019-02-18T17:23:29.912Z,12.20
2019-02-18T17:26:01.234Z,12.10
2019-02-18T17:28:32.553Z,12.10
2019-02-18T17:31:04.032Z,12.10
2019-02-18T17:33:35.482Z,12.10
2019-02-18T17:36:06.685Z,11.90
2019-02-18T17:38:37.876Z,12.00
2019-02-18T17:41:09.240Z,12.00
2019-02-18T17:43:40.419Z,12.00
2019-02-18T17:46:12.222Z,11.80
2019-02-18T17:48:43.474Z,11.70
2019-02-18T17:51:14.736Z,11.60
2019-02-18T17:53:46.220Z,11.50
2019-02-18T17:56:17.895Z,11.20
2019-02-18T17:58:49.294Z,11.10
2019-02-18T18:01:20.554Z,11.00
2019-02-18T18:03:51.684Z,10.90
2019-02-18T18:06:23.042Z,10.90
2019-02-18T18:08:54.223Z,10.70
2019-02-18T18:11:25.540Z,10.80
2019-02-18T18:13:56.678Z,10.70
2019-02-18T18:16:28.255Z,10.40
2019-02-18T18:18:59.484Z,10.30
2019-02-18T18:21:32.061Z,10.30
2019-02-18T18:24:03.399Z,10.30
2019-02-18T18:26:34.871Z,10.30
2019-02-18T18:29:06.176Z,10.30
2019-02-18T18:31:37.968Z,10.30
2019-02-18T18:34:09.174Z,10.20
2019-02-18T18:36:40.527Z,10.30
2019-02-18T18:39:11.782Z,10.20
2019-02-18T18:41:43.608Z,10.00
2019-02-18T18:44:14.996Z,9.90
2019-02-18T18:46:46.380Z,9.70
2019-02-18T18:49:17.829Z,9.70
2019-02-18T18:51:49.686Z,9.60
2019-02-18T18:54:20.905Z,9.70
2019-02-18T18:56:52.578Z,9.50
2019-02-18T18:59:23.820Z,9.50
2019-02-18T19:01:55.926Z,9.50
2019-02-18T19:04:27.334Z,9.50
2019-02-18T19:06:58.822Z,9.50
2019-02-18T19:09:30.125Z,9.50
2019-02-18T19:12:01.478Z,9.40
2019-02-18T19:14:33.373Z,9.30
2019-02-18T19:17:04.740Z,9.30
2019-02-18T19:19:36.044Z,9.20
2019-02-18T19:22:07.660Z,9.20
2019-02-18T19:24:38.971Z,9.10
2019-02-18T19:27:10.836Z,9.00
2019-02-18T19:29:42.430Z,8.90
2019-02-18T19:32:14.078Z,8.70
2019-02-18T19:34:45.326Z,8.80
2019-02-18T19:37:16.868Z,8.70
2019-02-18T19:39:48.304Z,8.70
2019-02-18T19:42:19.956Z,8.60
2019-02-18T19:44:51.312Z,8.60
2019-02-18T19:47:22.747Z,8.40
2019-02-18T19:49:54.010Z,8.40
2019-02-18T19:52:25.550Z,8.40
2019-02-18T19:54:56.940Z,8.30
2019-02-18T19:57:28.433Z,8.30
2019-02-18T19:59:59.668Z,8.40
2019-02-18T20:02:31.259Z,8.30
2019-02-18T20:05:02.700Z,8.20
2019-02-18T20:07:34.218Z,8.00
2019-02-18T20:10:06.263Z,7.80
2019-02-18T20:12:37.691Z,7.70
2019-02-18T20:15:09.652Z,7.60
2019-02-18T20:17:40.936Z,7.60
2019-02-18T20:20:12.538Z,7.50
2019-02-18T20:22:44.061Z,7.30
2019-02-18T20:25:15.250Z,7.20
2019-02-18T20:27:47.005Z,7.20
2019-02-18T20:30:18.192Z,7.20
2019-02-18T20:32:49.561Z,7.30
2019-02-18T20:35:20.693Z,7.40
2019-02-18T20:37:52.228Z,7.40
2019-02-18T20:40:23.909Z,7.40
2019-02-18T20:42:56.627Z,7.40
2019-02-18T20:45:27.851Z,7.30
2019-02-18T20:47:59.280Z,7.20
2019-02-18T20:50:30.774Z,7.20
2019-02-18T20:53:02.974Z,7.10
2019-02-18T20:55:34.204Z,7.10
2019-02-18T20:58:05.566Z,7.30
2019-02-18T21:00:36.816Z,7.30
2019-02-18T21:03:08.360Z,7.20
2019-02-18T21:05:39.821Z,7.20
2019-02-18T21:08:11.111Z,7.20
2019-02-18T21:10:42.189Z,7.20
2019-02-18T21:13:13.552Z,7.10
2019-02-18T21:15:44.660Z,7.10
2019-02-18T21:18:16.465Z,7.10
2019-02-18T21:20:47.606Z,7.10
2019-02-18T21:23:18.890Z,7.00
2019-02-18T21:25:50.010Z,7.00
2019-02-18T21:28:21.477Z,6.90
2019-02-18T21:30:52.924Z,6.90
2019-02-18T21:33:24.379Z,6.80
2019-02-18T21:35:55.459Z,6.70
2019-02-18T21:38:26.705Z,6.50
2019-02-18T21:40:57.836Z,6.50
2019-02-18T21:43:29.668Z,6.40
2019-02-18T21:46:00.876Z,6.40
2019-02-18T21:48:32.457Z,6.40
2019-02-18T21:51:03.522Z,6.50
2019-02-18T21:53:34.768Z,6.40
2019-02-18T21:56:06.455Z,6.40
2019-02-18T21:58:37.854Z,6.30
2019-02-18T22:01:09.032Z,6.20
2019-02-18T22:03:40.537Z,6.10
2019-02-18T22:06:11.737Z,6.10
2019-02-18T22:08:43.282Z,6.00
2019-02-18T22:11:14.498Z,6.00
2019-02-18T22:13:45.769Z,6.00
2019-02-18T22:16:16.965Z,5.90
2019-02-18T22:18:48.524Z,6.00
2019-02-18T22:21:19.740Z,6.00
2019-02-18T22:23:51.540Z,6.00
2019-02-18T22:26:22.645Z,6.00
2019-02-18T22:28:54.031Z,5.90
2019-02-18T22:31:25.492Z,5.80
2019-02-18T22:33:57.069Z,5.70
2019-02-18T22:36:29.468Z,6.00
2019-02-18T22:39:01.199Z,6.00
2019-02-18T22:41:33.932Z,6.20
2019-02-18T22:44:05.423Z,6.10
2019-02-18T22:46:36.580Z,6.10
2019-02-18T22:49:08.514Z,6.00
2019-02-18T22:51:39.635Z,6.00
2019-02-18T22:54:11.241Z,6.00
2019-02-18T22:56:42.373Z,6.00
2019-02-18T22:59:13.702Z,5.90
2019-02-18T23:01:44.795Z,5.80
2019-02-18T23:04:16.337Z,5.80
2019-02-18T23:06:47.759Z,5.70
2019-02-18T23:09:19.212Z,5.60
2019-02-18T23:11:50.323Z,5.60
2019-02-18T23:14:21.710Z,5.60
2019-02-18T23:16:52.814Z,5.70
2019-02-18T23:19:24.108Z,5.60
2019-02-18T23:21:55.210Z,5.60
2019-02-18T23:24:26.826Z,5.50
2019-02-18T23:26:58.048Z,5.40
2019-02-18T23:29:30.303Z,5.30
2019-02-18T23:32:01.494Z,5.30
2019-02-18T23:34:32.776Z,5.30
2019-02-18T23:37:04.004Z,5.20
2019-02-18T23:39:54.448Z,5.10
2019-02-18T23:42:25.702Z,5.10
2019-02-18T23:44:59.215Z,5.00
2019-02-18T23:47:29.945Z,4.90
2019-02-18T23:50:01.323Z,5.00
2019-02-18T23:52:32.474Z,5.00
2019-02-18T23:55:03.869Z,5.10
2019-02-18T23:57:35.035Z,5.20
